Nagaleader — VRDD5 — position and weather

sailwx.info

Track history (hours):
 
Tides and Currents Weather Stations Pressure Air Temp Water Temp Dewpoint Dewpoint Depression Visibility Wind Speed Wind Dir Waves Ship Positions

Nagaleader

Last reported at 2016-Jun-25 04:32 UTC. Time now 2016-Jun-25 12:25 UTC.
Position N 22°51' E 120°05'.

Length 113 m; draft 7 m.

Type: Cargo ship. MMSI: 477926700.

Date/timePositionNaut miles runAvg speedWind from/ knotsBaromVisibWave heightAir tempDewpointWater temp
2016-Jun-25 04:32N 22°51' E 120°05'1313.0
2016-Jun-25 03:33N 22°40' E 120°11'9 9.3
2016-Jun-25 02:33N 22°34' E 120°19'0 0.0
2016-Jun-25 01:33N 22°34' E 120°19'0 0.0
2016-Jun-25 00:33N 22°34' E 120°19'0 0.0
2016-Jun-24 23:33N 22°34' E 120°19'0 0.0
2016-Jun-24 22:33N 22°34' E 120°19'0 0.0
2016-Jun-24 21:33N 22°34' E 120°19'0 0.0
2016-Jun-24 20:16N 22°34' E 120°19'1 0.1
2016-Jun-24 10:32N 22°33' E 120°19'8 8.5
2016-Jun-24 09:33N 22°36' E 120°11'1212.2
2016-Jun-24 08:33N 22°47' E 120°06'198 6.8
2016-Jun-23 03:32N 26°02' E 119°30'3 2.6
2016-Jun-23 02:33N 26°00' E 119°29'0 0.0
2016-Jun-23 01:33N 26°00' E 119°29'0 0.0
2016-Jun-23 00:27N 26°00' E 119°29'0 0.0
2016-Jun-22 23:21N 26°00' E 119°29'0 0.0
2016-Jun-22 22:33N 26°00' E 119°29'0 0.1
2016-Jun-22 21:32N 26°00' E 119°29'0 0.0
2016-Jun-22 20:32N 26°00' E 119°29'0 0.0
2016-Jun-22 19:32N 26°00' E 119°29'0 0.0
2016-Jun-22 18:08N 26°00' E 119°29'0 0.1
2016-Jun-22 17:32N 26°00' E 119°29'0 0.1
2016-Jun-22 16:32N 26°00' E 119°29'0 0.1
2016-Jun-22 15:32N 26°00' E 119°29'0 0.0
2016-Jun-22 14:14N 26°00' E 119°29'0 0.0
2016-Jun-22 13:26N 26°00' E 119°29'0 0.1
2016-Jun-22 12:32N 26°00' E 119°29'0 0.0
2016-Jun-22 11:26N 26°00' E 119°29'0 0.0
2016-Jun-22 10:14N 26°00' E 119°29'0 0.1
2016-Jun-22 09:26N 26°00' E 119°29'0 0.1
2016-Jun-22 08:32N 26°00' E 119°29'0 0.0
2016-Jun-22 06:32N 26°00' E 119°29'0 0.0
2016-Jun-22 00:20N 26°00' E 119°29'0 0.1
2016-Jun-21 23:32N 26°00' E 119°29'0 0.1
2016-Jun-21 22:32N 26°00' E 119°29'0 0.0
2016-Jun-21 21:26N 26°00' E 119°29'0 0.1
2016-Jun-21 20:32N 26°00' E 119°29'0 0.0
2016-Jun-21 19:32N 26°00' E 119°29'0 0.0
2016-Jun-21 17:26N 26°00' E 119°29'0 0.0
2016-Jun-21 16:32N 26°00' E 119°29'0 0.0
2016-Jun-21 15:32N 26°00' E 119°29'0 0.1
2016-Jun-21 14:32N 26°00' E 119°29'19212.0
2016-Jun-20 22:33N 22°51' E 120°05'1212.0
2016-Jun-20 21:33N 22°40' E 120°10'10 9.7
2016-Jun-20 20:33N 22°33' E 120°17'2 2.0
2016-Jun-20 19:33N 22°34' E 120°19'0 0.1
2016-Jun-20 18:28N 22°34' E 120°19'0 0.0
2016-Jun-20 17:22N 22°34' E 120°19'0 0.1
2016-Jun-20 16:28N 22°34' E 120°19'0 0.0
2016-Jun-20 15:16N 22°34' E 120°19'0 0.0
2016-Jun-20 14:28N 22°34' E 120°19'0 0.0
2016-Jun-20 12:22N 22°34' E 120°19'1 0.1
2016-Jun-20 05:29N 22°33' E 120°20'3 3.0
2016-Jun-20 04:31N 22°32' E 120°17'1 0.6
2016-Jun-20 03:04N 22°32' E 120°17'0 0.1
2016-Jun-20 01:04N 22°32' E 120°17'0 0.1
2016-Jun-20 00:28N 22°32' E 120°18'0 0.0
2016-Jun-19 23:33N 22°32' E 120°18'2 1.6
2016-Jun-19 22:33N 22°31' E 120°16'1212.3
2016-Jun-19 21:33N 22°41' E 120°08'20810.8
2016-Jun-19 02:16N 26°07' E 119°33'710.4
2016-Jun-19 01:33N 26°00' E 119°29'0 0.0
2016-Jun-18 23:18N 26°00' E 119°29'0 0.0
2016-Jun-18 22:06N 26°00' E 119°29'0 0.0
2016-Jun-18 21:24N 26°00' E 119°29'0 0.0
2016-Jun-18 19:24N 26°00' E 119°29'0 0.0
2016-Jun-18 17:06N 26°00' E 119°29'0 0.0
2016-Jun-18 15:24N 26°00' E 119°29'0 0.0
2016-Jun-18 13:23N 26°00' E 119°29'0 0.0
2016-Jun-18 12:23N 26°00' E 119°29'0 0.1
2016-Jun-18 11:33N 26°00' E 119°29'19210.0
2016-Jun-17 16:23N 22°51' E 120°04'1011.4
2016-Jun-17 15:33N 22°43' E 120°09'1111.0
2016-Jun-17 14:33N 22°33' E 120°14'4 4.4
2016-Jun-17 13:33N 22°34' E 120°19'0 0.0
2016-Jun-17 12:06N 22°34' E 120°19'0 0.1
2016-Jun-17 11:12N 22°34' E 120°19'0 0.1
2016-Jun-17 10:30N 22°34' E 120°19'0 0.0
2016-Jun-17 09:18N 22°34' E 120°19'0 0.0
2016-Jun-17 08:30N 22°34' E 120°19'0 0.0
2016-Jun-17 07:30N 22°34' E 120°19'0 0.0
2016-Jun-17 06:30N 22°34' E 120°19'1 0.2
2016-Jun-16 22:33N 22°33' E 120°18'4 4.1
2016-Jun-16 21:34N 22°32' E 120°13'1212.2
2016-Jun-16 20:33N 22°43' E 120°08'202 9.5
2016-Jun-15 23:16N 26°02' E 119°30'2 3.1
2016-Jun-15 22:32N 26°00' E 119°29'0 0.0
2016-Jun-15 21:33N 26°00' E 119°29'0 0.0
2016-Jun-15 20:28N 26°00' E 119°29'0 0.0
2016-Jun-15 19:28N 26°00' E 119°29'0 0.0
2016-Jun-15 18:28N 26°00' E 119°29'0 0.0
2016-Jun-15 17:22N 26°00' E 119°29'0 0.0
2016-Jun-15 16:28N 26°00' E 119°29'0 0.0
2016-Jun-15 15:28N 26°00' E 119°29'0 0.0
2016-Jun-15 14:16N 26°00' E 119°29'0 0.0
2016-Jun-15 13:28N 26°00' E 119°29'0 0.0
2016-Jun-15 12:22N 26°00' E 119°29'0 0.0
2016-Jun-15 10:28N 26°00' E 119°29'0 0.0
2016-Jun-15 09:28N 26°00' E 119°29'0 0.0
2016-Jun-15 08:04N 26°00' E 119°29'0 0.0
2016-Jun-15 07:16N 26°00' E 119°29'0 0.0
2016-Jun-15 06:28N 26°00' E 119°29'0 0.0
2016-Jun-15 05:28N 26°00' E 119°29'  
Track history (hours):
 
Tides and Currents Weather Stations Pressure Air Temp Water Temp Dewpoint Dewpoint Depression Visibility Wind Speed Wind Dir Waves Ship Positions

Nagaleader

Last reported at 2016-Jun-25 04:32 UTC. Time now 2016-Jun-25 12:25 UTC.
Position N 22°51' E 120°05'.

Length 113 m; draft 7 m.

Type: Cargo ship. MMSI: 477926700.

Date/timePositionNaut miles runAvg speedWind from/ knotsBaromVisibWave heightAir tempDewpointWater temp
2016-Jun-25 04:32N 22°51' E 120°05'1313.0
2016-Jun-25 03:33N 22°40' E 120°11'9 9.3
2016-Jun-25 02:33N 22°34' E 120°19'0 0.0
2016-Jun-25 01:33N 22°34' E 120°19'0 0.0
2016-Jun-25 00:33N 22°34' E 120°19'0 0.0
2016-Jun-24 23:33N 22°34' E 120°19'0 0.0
2016-Jun-24 22:33N 22°34' E 120°19'0 0.0
2016-Jun-24 21:33N 22°34' E 120°19'0 0.0
2016-Jun-24 20:16N 22°34' E 120°19'1 0.1
2016-Jun-24 10:32N 22°33' E 120°19'8 8.5
2016-Jun-24 09:33N 22°36' E 120°11'1212.2
2016-Jun-24 08:33N 22°47' E 120°06'198 6.8
2016-Jun-23 03:32N 26°02' E 119°30'3 2.6
2016-Jun-23 02:33N 26°00' E 119°29'0 0.0
2016-Jun-23 01:33N 26°00' E 119°29'0 0.0
2016-Jun-23 00:27N 26°00' E 119°29'0 0.0
2016-Jun-22 23:21N 26°00' E 119°29'0 0.0
2016-Jun-22 22:33N 26°00' E 119°29'0 0.1
2016-Jun-22 21:32N 26°00' E 119°29'0 0.0
2016-Jun-22 20:32N 26°00' E 119°29'0 0.0
2016-Jun-22 19:32N 26°00' E 119°29'0 0.0
2016-Jun-22 18:08N 26°00' E 119°29'0 0.1
2016-Jun-22 17:32N 26°00' E 119°29'0 0.1
2016-Jun-22 16:32N 26°00' E 119°29'0 0.1
2016-Jun-22 15:32N 26°00' E 119°29'0 0.0
2016-Jun-22 14:14N 26°00' E 119°29'0 0.0
2016-Jun-22 13:26N 26°00' E 119°29'0 0.1
2016-Jun-22 12:32N 26°00' E 119°29'0 0.0
2016-Jun-22 11:26N 26°00' E 119°29'0 0.0
2016-Jun-22 10:14N 26°00' E 119°29'0 0.1
2016-Jun-22 09:26N 26°00' E 119°29'0 0.1
2016-Jun-22 08:32N 26°00' E 119°29'0 0.0
2016-Jun-22 06:32N 26°00' E 119°29'0 0.0
2016-Jun-22 00:20N 26°00' E 119°29'0 0.1
2016-Jun-21 23:32N 26°00' E 119°29'0 0.1
2016-Jun-21 22:32N 26°00' E 119°29'0 0.0
2016-Jun-21 21:26N 26°00' E 119°29'0 0.1
2016-Jun-21 20:32N 26°00' E 119°29'0 0.0
2016-Jun-21 19:32N 26°00' E 119°29'0 0.0
2016-Jun-21 17:26N 26°00' E 119°29'0 0.0
2016-Jun-21 16:32N 26°00' E 119°29'0 0.0
2016-Jun-21 15:32N 26°00' E 119°29'0 0.1
2016-Jun-21 14:32N 26°00' E 119°29'19212.0
2016-Jun-20 22:33N 22°51' E 120°05'1212.0
2016-Jun-20 21:33N 22°40' E 120°10'10 9.7
2016-Jun-20 20:33N 22°33' E 120°17'2 2.0
2016-Jun-20 19:33N 22°34' E 120°19'0 0.1
2016-Jun-20 18:28N 22°34' E 120°19'0 0.0
2016-Jun-20 17:22N 22°34' E 120°19'0 0.1
2016-Jun-20 16:28N 22°34' E 120°19'0 0.0
2016-Jun-20 15:16N 22°34' E 120°19'0 0.0
2016-Jun-20 14:28N 22°34' E 120°19'0 0.0
2016-Jun-20 12:22N 22°34' E 120°19'1 0.1
2016-Jun-20 05:29N 22°33' E 120°20'3 3.0
2016-Jun-20 04:31N 22°32' E 120°17'1 0.6
2016-Jun-20 03:04N 22°32' E 120°17'0 0.1
2016-Jun-20 01:04N 22°32' E 120°17'0 0.1
2016-Jun-20 00:28N 22°32' E 120°18'0 0.0
2016-Jun-19 23:33N 22°32' E 120°18'2 1.6
2016-Jun-19 22:33N 22°31' E 120°16'1212.3
2016-Jun-19 21:33N 22°41' E 120°08'20810.8
2016-Jun-19 02:16N 26°07' E 119°33'710.4
2016-Jun-19 01:33N 26°00' E 119°29'0 0.0
2016-Jun-18 23:18N 26°00' E 119°29'0 0.0
2016-Jun-18 22:06N 26°00' E 119°29'0 0.0
2016-Jun-18 21:24N 26°00' E 119°29'0 0.0
2016-Jun-18 19:24N 26°00' E 119°29'0 0.0
2016-Jun-18 17:06N 26°00' E 119°29'0 0.0
2016-Jun-18 15:24N 26°00' E 119°29'0 0.0
2016-Jun-18 13:23N 26°00' E 119°29'0 0.0
2016-Jun-18 12:23N 26°00' E 119°29'0 0.1
2016-Jun-18 11:33N 26°00' E 119°29'19210.0
2016-Jun-17 16:23N 22°51' E 120°04'1011.4
2016-Jun-17 15:33N 22°43' E 120°09'1111.0
2016-Jun-17 14:33N 22°33' E 120°14'4 4.4
2016-Jun-17 13:33N 22°34' E 120°19'0 0.0
2016-Jun-17 12:06N 22°34' E 120°19'0 0.1
2016-Jun-17 11:12N 22°34' E 120°19'0 0.1
2016-Jun-17 10:30N 22°34' E 120°19'0 0.0
2016-Jun-17 09:18N 22°34' E 120°19'0 0.0
2016-Jun-17 08:30N 22°34' E 120°19'0 0.0
2016-Jun-17 07:30N 22°34' E 120°19'0 0.0
2016-Jun-17 06:30N 22°34' E 120°19'1 0.2
2016-Jun-16 22:33N 22°33' E 120°18'4 4.1
2016-Jun-16 21:34N 22°32' E 120°13'1212.2
2016-Jun-16 20:33N 22°43' E 120°08'202 9.5
2016-Jun-15 23:16N 26°02' E 119°30'2 3.1
2016-Jun-15 22:32N 26°00' E 119°29'0 0.0
2016-Jun-15 21:33N 26°00' E 119°29'0 0.0
2016-Jun-15 20:28N 26°00' E 119°29'0 0.0
2016-Jun-15 19:28N 26°00' E 119°29'0 0.0
2016-Jun-15 18:28N 26°00' E 119°29'0 0.0
2016-Jun-15 17:22N 26°00' E 119°29'0 0.0
2016-Jun-15 16:28N 26°00' E 119°29'0 0.0
2016-Jun-15 15:28N 26°00' E 119°29'0 0.0
2016-Jun-15 14:16N 26°00' E 119°29'0 0.0
2016-Jun-15 13:28N 26°00' E 119°29'0 0.0
2016-Jun-15 12:22N 26°00' E 119°29'0 0.0
2016-Jun-15 10:28N 26°00' E 119°29'0 0.0
2016-Jun-15 09:28N 26°00' E 119°29'0 0.0
2016-Jun-15 08:04N 26°00' E 119°29'0 0.0
2016-Jun-15 07:16N 26°00' E 119°29'0 0.0
2016-Jun-15 06:28N 26°00' E 119°29'0 0.0
2016-Jun-15 05:28N 26°00' E 119°29'  

Dump ship's entire track history